Terminal Aerodrome Forecast
Issued by NWS

Home | Current Version | Previous Version | Text Only | Print | Product List | Glossary On
Versions: 1 2 3 4 5 6 7 8 9 10 11 12 13 14
853
FTUS43 KLSX 271127
TAFCPS
TAF
KCPS 271127Z 2712/2812 VRB04KT P6SM SCT100 BKN250
     FM271500 20006KT P6SM SCT040 BKN120
     FM280100 VRB03KT P6SM FEW050 BKN250
     FM281000 VRB03KT 5SM BR SCT250=

USA.gov is the U.S. government's official web portal to all federal, state and local government web resources and services.